Time;durP1;ratioP1;P1;durP2;ratioP2;P2;SDS_P1;SDS_P2;PMS_P1;PMS_P2;Temp;Humidity;BMP_temperature;BMP_pressure;BME280_temperature;BME280_humidity;BME280_pressure;Samples;Min_cycle;Max_cycle;Signal;HPM_P1;HPM_P2
2022/04/25 00:00:44;;;;;;;2.12;0.77;;;;;;;14.57;54.27;96896.63;4456464;32;20103;-74
2022/04/25 00:03:11;;;;;;;5.75;0.90;;;;;;;15.22;52.21;96907.09;4456251;32;20089;-74
2022/04/25 00:08:27;;;;;;;2.30;0.77;;;;;;;15.20;51.93;96895.97;4455072;32;20511;-74
2022/04/25 00:10:54;;;;;;;1.67;0.80;;;;;;;14.53;54.18;96897.81;4456115;32;20148;-74
2022/04/25 00:13:21;;;;;;;5.37;1.40;;;;;;;14.17;55.38;96897.06;4456447;32;20157;-74
2022/04/25 00:15:48;;;;;;;3.03;1.15;;;;;;;13.39;58.88;96899.37;4455253;32;20088;-74
2022/04/25 00:18:15;;;;;;;3.17;1.00;;;;;;;13.28;60.06;96895.81;4456533;32;20140;-74
2022/04/25 00:20:42;;;;;;;4.65;1.20;;;;;;;12.81;62.45;96898.34;4456334;32;20148;-74
2022/04/25 00:23:09;;;;;;;6.22;1.33;;;;;;;12.87;63.95;96890.97;4456014;32;20526;-74
2022/04/25 00:25:36;;;;;;;3.53;1.20;;;;;;;13.46;62.38;96891.06;4456210;32;20100;-74
2022/04/25 00:28:05;;;;;;;4.00;1.75;;;;;;;13.03;64.16;96883.75;4456227;32;20111;-74
2022/04/25 00:30:32;;;;;;;2.47;1.10;;;;;;;14.14;60.30;96892.94;4455965;32;20164;-74
2022/04/25 00:32:59;;;;;;;7.75;1.60;;;;;;;14.43;59.38;96903.69;4456393;32;20099;-74
2022/04/25 00:35:26;;;;;;;2.97;1.35;;;;;;;14.63;58.34;96894.41;4456142;32;20119;-74
2022/04/25 00:37:54;;;;;;;4.43;1.50;;;;;;;14.36;59.51;96899.09;4483385;26;20128;-74
2022/04/25 00:40:22;;;;;;;4.37;1.50;;;;;;;14.14;60.56;96903.31;4456113;32;20423;-74
2022/04/25 00:42:50;;;;;;;4.62;1.30;;;;;;;14.39;59.36;96904.06;4456175;32;20084;-74
2022/04/25 00:45:17;;;;;;;8.32;2.05;;;;;;;14.35;59.25;96906.03;4441617;32;20116;-74
2022/04/25 00:52:55;;;;;;;2.40;1.10;;;;;;;14.69;58.86;96906.94;4577626;26;20088;-74
2022/04/25 00:55:23;;;;;;;4.75;1.30;;;;;;;14.69;58.95;96903.50;4455772;32;20460;-74
2022/04/25 00:57:52;;;;;;;5.95;1.27;;;;;;;14.41;60.17;96896.97;4762228;26;20602;-74
2022/04/25 01:00:19;;;;;;;4.03;1.08;;;;;;;14.31;60.17;96862.28;4442126;32;20160;-74
2022/04/25 01:02:46;;;;;;;4.45;1.25;;;;;;;14.21;61.89;96888.09;4455991;32;20149;-74
2022/04/25 01:05:13;;;;;;;3.08;1.05;;;;;;;14.30;61.25;96891.78;4455381;32;20477;-74
2022/04/25 01:07:40;;;;;;;4.97;1.02;;;;;;;14.04;62.10;96897.16;4574894;26;20172;-74
2022/04/25 01:10:09;;;;;;;3.08;1.02;;;;;;;13.95;62.56;96894.44;4456068;32;20108;-74
2022/04/25 01:12:37;;;;;;;3.10;1.17;;;;;;;13.50;64.70;96892.50;4441812;32;20097;-74
2022/04/25 01:15:09;;;;;;;3.80;1.10;;;;;;;13.68;64.02;96886.91;4455658;32;20116;-74
2022/04/25 01:17:36;;;;;;;3.00;1.10;;;;;;;14.03;62.95;96899.84;4455864;32;20156;-74
2022/04/25 01:20:05;;;;;;;2.10;0.90;;;;;;;14.41;61.51;96902.16;4455713;32;20471;-74
2022/04/25 01:22:36;;;;;;;2.42;1.00;;;;;;;14.32;61.94;96900.25;4455815;32;20428;-74
2022/04/25 01:33:05;;;;;;;1.62;1.00;;;;;;;14.50;61.69;96906.69;5206911;26;20200;-74
2022/04/25 01:35:32;;;;;;;1.92;1.00;;;;;;;14.73;60.89;96897.94;4455624;32;20120;-74
2022/04/25 01:40:48;;;;;;;3.40;0.80;;;;;;;14.83;60.11;96890.25;4699413;26;20153;-74
2022/04/25 01:43:15;;;;;;;2.40;0.90;;;;;;;14.96;59.44;96895.31;4455618;32;20124;-74
2022/04/25 01:45:42;;;;;;;3.72;0.80;;;;;;;15.26;58.29;96902.47;4455481;32;20102;-74
2022/04/25 01:53:20;;;;;;;1.25;0.60;;;;;;;14.93;59.18;96895.56;4556015;26;20164;-74
2022/04/25 01:55:47;;;;;;;3.10;0.93;;;;;;;15.31;57.36;96897.72;4440725;32;20120;-74
2022/04/25 01:58:13;;;;;;;3.47;0.80;;;;;;;15.51;56.54;96915.13;4873547;26;20184;-74
2022/04/25 02:00:40;;;;;;;4.82;0.90;;;;;;;15.73;55.96;96911.66;4455394;32;20080;-74
2022/04/25 02:03:10;;;;;;;2.65;0.85;;;;;;;15.48;56.60;96919.75;4455128;32;20154;-74
2022/04/25 02:05:37;;;;;;;2.70;0.73;;;;;;;15.42;56.69;96915.91;4455001;32;20471;-74
2022/04/25 02:08:04;;;;;;;0.85;0.60;;;;;;;14.90;58.85;96919.19;4513138;26;20089;-74
2022/04/25 02:10:32;;;;;;;4.62;0.80;;;;;;;15.02;58.45;96918.22;4455174;32;20085;-74
2022/04/25 02:12:59;;;;;;;1.08;0.62;;;;;;;15.05;58.55;96917.97;4455192;32;20097;-74
2022/04/25 02:15:26;;;;;;;1.33;0.70;;;;;;;14.43;60.82;96916.66;4454632;32;20240;-74
2022/04/25 02:17:53;;;;;;;2.75;0.98;;;;;;;15.11;58.80;96927.91;4455051;32;20454;-74
2022/04/25 02:20:20;;;;;;;3.45;0.90;;;;;;;14.13;62.43;96918.97;4455012;32;20168;-74
2022/04/25 02:22:48;;;;;;;1.52;0.75;;;;;;;14.07;63.10;96911.66;4454694;32;20109;-74
2022/04/25 02:25:14;;;;;;;2.50;0.70;;;;;;;14.32;62.03;96914.06;4454777;32;20487;-74
2022/04/25 02:27:42;;;;;;;2.45;0.70;;;;;;;14.58;60.98;96917.31;4488407;26;20096;-74
2022/04/25 02:30:09;;;;;;;1.12;0.60;;;;;;;14.45;61.45;96925.19;4454622;32;20507;-74
2022/04/25 02:32:36;;;;;;;1.52;0.80;;;;;;;14.58;60.87;96924.28;4455018;32;20109;-74
2022/04/25 02:35:04;;;;;;;2.42;0.75;;;;;;;13.81;63.41;96921.34;4454544;32;20101;-74
2022/04/25 02:40:07;;;;;;;3.50;0.90;;;;;;;13.95;63.28;96913.41;4864266;26;20173;-74
2022/04/25 02:42:34;;;;;;;3.05;0.70;;;;;;;14.74;60.27;96933.34;4454643;32;20144;-74
2022/04/25 02:45:01;;;;;;;3.10;0.70;;;;;;;14.40;61.42;96924.69;4454161;32;20165;-74
2022/04/25 02:47:28;;;;;;;2.17;0.80;;;;;;;13.91;63.05;96911.97;4458636;26;20118;-74
2022/04/25 02:49:54;;;;;;;1.85;0.85;;;;;;;14.25;61.96;96922.41;4454926;32;20099;-74
2022/04/25 02:52:21;;;;;;;1.83;0.68;;;;;;;14.68;60.57;96927.81;4455759;32;20470;-74
2022/04/25 02:54:48;;;;;;;3.25;0.75;;;;;;;14.59;60.59;96934.53;4456818;32;20411;-74
2022/04/25 02:57:15;;;;;;;1.23;0.70;;;;;;;14.10;62.49;96930.41;4456774;32;20456;-74
2022/04/25 02:59:42;;;;;;;1.77;0.60;;;;;;;14.53;61.13;96934.16;4457008;32;20566;-74
2022/04/25 03:02:09;;;;;;;2.40;0.88;;;;;;;14.50;61.17;96932.62;4456875;32;20491;-74
2022/04/25 03:04:37;;;;;;;0.98;0.60;;;;;;;14.18;62.30;96932.44;4456500;32;20100;-74
2022/04/25 03:07:04;;;;;;;1.27;0.65;;;;;;;14.70;60.38;96939.72;4456529;32;20102;-74
2022/04/25 03:09:31;;;;;;;1.17;0.57;;;;;;;14.60;60.54;96941.38;4456775;32;20099;-74
2022/04/25 03:11:58;;;;;;;2.05;0.77;;;;;;;14.51;60.57;96930.88;4456478;32;20149;-74
2022/04/25 03:14:26;;;;;;;0.80;0.80;;;;;;;13.87;62.98;96926.94;4456773;32;20119;-74
2022/04/25 03:16:53;;;;;;;1.37;0.70;;;;;;;13.19;65.98;96924.16;4456715;32;20108;-74
2022/04/25 03:19:20;;;;;;;3.80;0.98;;;;;;;13.10;67.07;96919.59;4442359;32;20486;-74
2022/04/25 03:21:47;;;;;;;2.15;0.90;;;;;;;13.27;66.13;96927.00;4456683;32;20106;-74
2022/04/25 03:24:14;;;;;;;3.62;1.05;;;;;;;13.19;66.49;96924.16;4456528;32;20156;-74
2022/04/25 03:26:41;;;;;;;2.50;1.00;;;;;;;13.60;65.17;96927.16;4456552;32;20152;-74
2022/04/25 03:29:08;;;;;;;2.45;0.90;;;;;;;13.71;64.60;96928.16;4455870;32;20112;-74
2022/04/25 03:31:36;;;;;;;4.07;1.20;;;;;;;13.41;65.84;96928.63;4456708;32;20156;-74
2022/04/25 03:34:04;;;;;;;3.58;1.12;;;;;;;13.19;66.72;96931.94;4442317;32;20109;-74
2022/04/25 03:36:31;;;;;;;3.10;0.90;;;;;;;13.26;66.52;96938.31;4442729;32;20574;-74
2022/04/25 03:38:58;;;;;;;2.87;0.93;;;;;;;13.42;65.73;96943.25;4526537;26;20459;-74
2022/04/25 03:41:25;;;;;;;2.60;1.17;;;;;;;13.54;65.09;96934.56;4456288;32;20148;-74
2022/04/25 03:43:52;;;;;;;2.70;1.00;;;;;;;13.40;66.17;96935.59;4456694;32;20474;-74
2022/04/25 03:46:19;;;;;;;2.75;0.80;;;;;;;13.40;66.29;96938.16;4456203;32;20111;-74
2022/04/25 03:48:45;;;;;;;2.47;0.90;;;;;;;12.98;68.00;96937.66;4442285;32;20107;-74
2022/04/25 03:51:12;;;;;;;0.60;0.60;;;;;;;13.03;68.11;96943.31;4456592;32;20179;-74
2022/04/25 03:53:40;;;;;;;2.42;1.00;;;;;;;12.84;68.56;96945.53;4456296;32;20145;-74
2022/04/25 03:58:52;;;;;;;1.45;0.75;;;;;;;13.25;66.90;96947.00;4456372;32;20110;-74
2022/04/25 04:01:19;;;;;;;2.65;1.10;;;;;;;13.06;67.66;96952.63;4456091;32;20145;-74
2022/04/25 04:03:46;;;;;;;2.15;0.80;;;;;;;13.31;66.67;96954.38;4442475;32;20492;-74
2022/04/25 04:06:15;;;;;;;2.40;0.90;;;;;;;13.12;67.46;96959.97;4456453;32;20089;-74
2022/04/25 04:08:43;;;;;;;2.37;0.95;;;;;;;13.08;67.88;96957.69;4455958;32;20097;-74
2022/04/25 04:11:10;;;;;;;2.00;0.80;;;;;;;12.91;68.50;96964.06;4456433;32;20141;-74
2022/04/25 04:13:37;;;;;;;1.85;1.10;;;;;;;13.28;67.21;96957.97;4456422;32;20138;-74
2022/04/25 04:16:04;;;;;;;2.00;0.90;;;;;;;13.48;66.17;96964.34;4455917;32;20096;-74
2022/04/25 04:18:31;;;;;;;4.10;0.98;;;;;;;13.68;65.53;96955.13;4456009;32;20485;-74
2022/04/25 04:20:58;;;;;;;3.05;1.02;;;;;;;13.76;65.17;96957.19;4456507;32;20089;-74
2022/04/25 04:23:32;;;;;;;0.90;0.80;;;;;;;14.55;62.31;96966.00;4456139;32;20085;-74
2022/04/25 04:25:59;;;;;;;3.85;1.55;;;;;;;14.82;60.78;96966.53;4456060;32;20105;-74
2022/04/25 04:28:26;;;;;;;3.03;1.00;;;;;;;15.08;59.70;96972.28;4455363;32;20387;-74
2022/04/25 04:30:53;;;;;;;2.60;1.00;;;;;;;15.58;58.07;96980.47;4456342;32;20097;-74
2022/04/25 04:33:20;;;;;;;1.95;0.90;;;;;;;16.22;55.72;96979.66;4456324;32;20089;-74
2022/04/25 04:38:32;;;;;;;2.00;0.80;;;;;;;18.21;48.52;96987.66;4718391;26;20060;-75
2022/04/25 04:40:59;;;;;;;1.65;0.90;;;;;;;18.62;46.90;97003.94;4456223;32;20149;-74
2022/04/25 04:43:26;;;;;;;4.18;1.02;;;;;;;18.16;48.38;97002.88;4455819;32;20156;-74
2022/04/25 04:45:53;;;;;;;1.95;0.95;;;;;;;18.41;47.67;96999.72;4455908;32;20148;-74
2022/04/25 04:50:56;;;;;;;3.55;1.10;;;;;;;17.87;48.84;96963.75;4506078;26;20175;-74
2022/04/25 04:53:24;;;;;;;3.72;0.98;;;;;;;18.56;47.71;97010.53;4456204;32;20096;-74
2022/04/25 04:55:51;;;;;;;2.92;1.10;;;;;;;18.52;48.16;97009.19;4455950;32;20135;-74
2022/04/25 04:58:19;;;;;;;5.75;0.90;;;;;;;18.43;48.44;97012.63;4544352;26;20177;-75
2022/04/25 05:00:47;;;;;;;1.85;0.90;;;;;;;18.85;47.12;97010.53;4456232;32;20093;-75
2022/04/25 05:03:15;;;;;;;2.22;0.88;;;;;;;18.21;49.00;97014.56;4442095;32;20166;-74
2022/04/25 05:05:43;;;;;;;2.67;0.93;;;;;;;18.58;48.29;97018.25;4442026;32;20138;-75
2022/04/25 05:10:46;;;;;;;2.55;1.00;;;;;;;18.69;47.93;97020.72;4610488;26;20160;-74
2022/04/25 05:13:15;;;;;;;3.78;0.80;;;;;;;18.34;48.82;97014.28;4442179;32;20184;-74
2022/04/25 05:15:42;;;;;;;5.57;0.90;;;;;;;18.07;49.82;97014.97;4454827;32;20105;-74
2022/04/25 05:18:09;;;;;;;1.55;0.90;;;;;;;17.82;50.06;97016.34;4455592;32;20097;-74
2022/04/25 05:20:36;;;;;;;1.85;1.00;;;;;;;18.42;48.73;97019.66;4455965;32;20105;-74
2022/04/25 05:23:03;;;;;;;3.47;0.95;;;;;;;18.90;47.44;97013.50;4455689;32;20112;-74
2022/04/25 05:25:30;;;;;;;2.12;0.80;;;;;;;20.29;43.68;97017.72;4455370;32;20368;-74
2022/04/25 05:30:33;;;;;;;2.15;0.90;;;;;;;21.72;40.58;97021.53;4759771;26;351269;-75
2022/04/25 05:33:03;;;;;;;2.35;0.82;;;;;;;22.01;39.40;97034.25;4455570;32;20081;-75
2022/04/25 05:35:31;;;;;;;2.20;0.80;;;;;;;21.69;39.88;97034.97;4455564;32;20097;-75
2022/04/25 05:38:00;;;;;;;2.00;0.80;;;;;;;21.09;41.36;97032.41;4455437;32;20098;-74
2022/04/25 05:40:27;;;;;;;3.28;1.10;;;;;;;20.29;42.34;97015.91;4455397;32;20160;-74
2022/04/25 05:42:56;;;;;;;3.45;1.02;;;;;;;19.81;44.30;97050.31;4441671;32;20170;-74
2022/04/25 05:45:24;;;;;;;1.55;0.80;;;;;;;19.32;45.22;97031.38;4455051;32;20568;-74
2022/04/25 05:47:55;;;;;;;2.50;0.98;;;;;;;19.25;46.81;97038.19;4441761;32;20163;-74
2022/04/25 05:53:09;;;;;;;2.30;0.80;;;;;;;19.86;45.57;97046.28;4455282;32;20093;-74
2022/04/25 05:55:39;;;;;;;2.40;0.90;;;;;;;19.54;46.27;97054.53;4441423;32;20123;-75
2022/04/25 05:58:10;;;;;;;3.35;0.98;;;;;;;19.44;46.67;97059.00;4455401;32;20123;-74
2022/04/25 06:00:37;;;;;;;1.40;0.90;;;;;;;20.02;45.86;97057.91;4455161;32;20103;-73
2022/04/25 06:03:04;;;;;;;3.83;1.00;;;;;;;19.83;46.22;97056.22;4441312;32;20105;-74
2022/04/25 06:05:31;;;;;;;1.87;1.00;;;;;;;19.68;47.07;97061.13;4455136;32;20089;-73
2022/04/25 06:07:58;;;;;;;2.53;0.80;;;;;;;19.71;45.55;97055.59;4454958;32;20430;-73
2022/04/25 06:10:28;;;;;;;2.20;1.15;;;;;;;19.60;46.60;97066.28;4455270;32;20409;-74
2022/04/25 06:12:55;;;;;;;2.05;0.82;;;;;;;19.44;47.29;97063.41;4455327;32;20097;-75
2022/04/25 06:15:26;;;;;;;3.15;1.00;;;;;;;19.87;45.95;97073.28;4454600;32;20097;-75
2022/04/25 06:17:55;;;;;;;3.20;0.90;;;;;;;19.82;45.40;97078.97;4455092;32;20547;-74
2022/04/25 06:20:23;;;;;;;4.68;1.10;;;;;;;20.08;44.86;97068.59;4454670;32;20108;-80
2022/04/25 06:22:55;;;;;;;1.67;0.90;;;;;;;19.86;44.84;97075.06;4440823;32;20107;-76
2022/04/25 06:25:23;;;;;;;2.08;0.90;;;;;;;20.40;44.36;97082.97;4441256;32;20177;-76
2022/04/25 06:27:50;;;;;;;3.92;0.82;;;;;;;20.83;42.68;97081.37;4456814;32;20453;-77
2022/04/25 06:30:17;;;;;;;3.90;0.90;;;;;;;20.92;41.70;97080.47;4456503;32;20097;-76
2022/04/25 06:32:44;;;;;;;3.08;0.90;;;;;;;19.65;45.11;97082.34;4456948;32;20117;-76
2022/04/25 06:35:12;;;;;;;1.50;0.75;;;;;;;20.75;43.13;97084.78;4456279;32;20596;-77
2022/04/25 06:37:39;;;;;;;2.92;1.20;;;;;;;20.83;42.05;97079.56;4457181;32;20172;-79
2022/04/25 06:40:07;;;;;;;1.12;0.75;;;;;;;20.37;44.01;97089.34;4456835;32;20128;-80
2022/04/25 06:42:34;;;;;;;3.10;0.88;;;;;;;20.32;43.49;97088.16;4456468;32;20424;-80
2022/04/25 06:45:01;;;;;;;2.45;0.80;;;;;;;20.86;42.98;97087.16;4456943;32;20252;-78
2022/04/25 06:47:28;;;;;;;4.22;0.80;;;;;;;20.45;43.71;97093.88;4457060;32;20104;-77
2022/04/25 06:49:55;;;;;;;3.17;0.90;;;;;;;20.97;42.99;97089.53;4455632;32;20081;-80
2022/04/25 06:52:22;;;;;;;3.30;0.80;;;;;;;20.87;42.33;97101.09;4455925;32;20103;-80
2022/04/25 06:54:50;;;;;;;2.83;1.05;;;;;;;21.06;43.43;97106.97;4441646;32;20131;-80
2022/04/25 06:57:17;;;;;;;0.90;0.70;;;;;;;21.97;40.88;97103.00;4456819;32;20514;-80
2022/04/25 06:59:45;;;;;;;1.98;0.80;;;;;;;21.55;41.05;97104.66;4456887;32;20107;-79
2022/04/25 07:02:13;;;;;;;2.75;0.95;;;;;;;20.99;43.24;97108.56;4456881;32;20117;-79
2022/04/25 07:04:42;;;;;;;4.80;0.90;;;;;;;20.50;44.61;97099.47;4456273;32;20558;-80
2022/04/25 07:07:09;;;;;;;0.80;0.60;;;;;;;21.27;42.68;97097.94;4454945;32;20133;-80
2022/04/25 07:09:36;;;;;;;2.85;0.70;;;;;;;21.89;41.20;97101.16;4454370;32;20081;-79
2022/04/25 07:12:04;;;;;;;1.75;0.90;;;;;;;21.72;40.90;97097.69;4455673;32;20180;-80
2022/04/25 07:14:33;;;;;;;2.72;0.80;;;;;;;21.43;40.69;97099.81;4455815;32;20149;-80
2022/04/25 07:17:03;;;;;;;2.85;0.90;;;;;;;21.58;39.86;97095.63;4456464;32;20092;-80
2022/04/25 07:19:31;;;;;;;4.30;0.95;;;;;;;22.76;38.61;97095.44;4456868;32;20462;-80
2022/04/25 07:30:23;;;;;;;2.97;0.80;;;;;;;22.65;37.76;97100.19;4456379;32;20113;-82
2022/04/25 07:32:50;;;;;;;4.72;0.80;;;;;;;23.71;35.37;97111.41;4455975;32;20092;-82
2022/04/25 07:35:18;;;;;;;1.40;0.80;;;;;;;24.35;34.62;97119.19;4454435;32;20180;-82
2022/04/25 07:37:45;;;;;;;1.92;0.82;;;;;;;25.44;32.51;97108.25;4454862;32;20147;-82
2022/04/25 07:40:12;;;;;;;0.90;0.80;;;;;;;25.58;32.70;97119.81;4455831;32;20084;-82
2022/04/25 07:42:39;;;;;;;1.42;0.77;;;;;;;25.41;32.21;97118.34;4455951;32;20152;-82
2022/04/25 07:45:08;;;;;;;1.52;0.80;;;;;;;25.13;32.84;97123.44;4455705;32;20113;-81
2022/04/25 07:47:35;;;;;;;2.60;0.80;;;;;;;25.82;31.50;97119.56;4442639;32;20163;-82
2022/04/25 07:50:03;;;;;;;0.60;0.60;;;;;;;25.78;32.02;97128.88;4456558;32;20121;-82
2022/04/25 07:52:30;;;;;;;1.77;0.90;;;;;;;25.05;32.81;97130.41;4456051;32;20168;-82
2022/04/25 07:54:57;;;;;;;2.28;0.70;;;;;;;24.86;33.91;97130.06;4442227;32;20160;-82
2022/04/25 07:57:24;;;;;;;2.20;1.05;;;;;;;22.69;36.36;97123.38;4455866;32;20092;-82
2022/04/25 07:59:51;;;;;;;4.25;1.02;;;;;;;25.02;33.28;97133.41;4454942;32;20103;-82
2022/04/25 08:02:19;;;;;;;2.83;0.98;;;;;;;24.72;32.76;97135.09;4455417;32;20475;-83
2022/04/25 08:04:46;;;;;;;6.37;1.05;;;;;;;25.68;31.71;97129.13;4453271;32;20113;-81
2022/04/25 08:07:13;;;;;;;1.27;1.00;;;;;;;25.89;32.09;97130.22;4452217;32;20118;-81
2022/04/25 08:09:41;;;;;;;1.25;0.90;;;;;;;24.30;33.20;97135.53;4455475;32;20172;-81
2022/04/25 08:20:29;;;;;;;2.65;0.82;;;;;;;26.55;28.88;97135.47;4455789;32;20082;-81
2022/04/25 08:22:57;;;;;;;3.97;1.00;;;;;;;25.07;31.90;97138.97;4456255;32;20114;-79
2022/04/25 08:25:24;;;;;;;2.35;0.80;;;;;;;25.48;30.99;97135.94;4446461;32;20093;-81
2022/04/25 08:27:51;;;;;;;2.12;0.77;;;;;;;26.03;29.56;97141.78;4414080;32;20176;-82
2022/04/25 08:30:19;;;;;;;2.08;1.02;;;;;;;25.52;31.26;97145.16;4443566;32;20429;-81
2022/04/25 08:32:47;;;;;;;1.95;0.80;;;;;;;25.22;30.63;97146.94;4456263;32;20140;-83
2022/04/25 08:35:14;;;;;;;1.15;0.80;;;;;;;26.14;30.40;97143.94;4454784;32;20115;-84
2022/04/25 08:37:42;;;;;;;2.03;0.77;;;;;;;26.21;29.53;97139.56;4454549;32;20792;-83
2022/04/25 08:40:10;;;;;;;2.15;1.00;;;;;;;26.90;29.49;97147.81;4441730;32;20118;-82
2022/04/25 08:42:37;;;;;;;2.60;0.90;;;;;;;25.38;31.12;97152.03;4448780;32;20410;-83
2022/04/25 08:45:12;;;;;;;1.73;0.80;;;;;;;26.14;30.49;97142.13;4440675;32;20147;-83
2022/04/25 08:48:00;;;;;;;1.90;0.90;;;;;;;25.98;31.25;97142.34;4442245;32;20123;-81
2022/04/25 08:50:28;;;;;;;2.22;0.98;;;;;;;24.16;32.89;97141.53;4454142;32;20111;-81
2022/04/25 08:52:56;;;;;;;6.72;1.15;;;;;;;24.02;35.26;97140.44;4455591;32;20136;-80
2022/04/25 08:55:26;;;;;;;3.08;0.90;;;;;;;24.60;32.89;97147.06;4455720;32;20573;-81
2022/04/25 08:57:55;;;;;;;1.92;0.93;;;;;;;24.99;32.07;97152.22;4452902;32;20101;-79
2022/04/25 09:00:22;;;;;;;1.35;0.77;;;;;;;24.64;33.42;97152.81;4452874;32;20124;-82
2022/04/25 09:02:49;;;;;;;1.67;0.90;;;;;;;23.09;35.89;97148.06;4454118;32;20774;-81
2022/04/25 09:05:17;;;;;;;4.93;1.17;;;;;;;24.15;34.64;97153.06;4441875;32;20167;-80
2022/04/25 09:07:44;;;;;;;2.33;1.15;;;;;;;26.61;29.12;97159.38;4454995;32;20089;-81
2022/04/25 09:10:14;;;;;;;1.10;0.70;;;;;;;26.72;29.88;97156.22;4448380;32;20127;-82
2022/04/25 09:12:42;;;;;;;0.70;0.68;;;;;;;26.30;30.13;97162.25;4439977;32;20145;-81
2022/04/25 09:15:20;;;;;;;1.12;0.80;;;;;;;24.59;33.80;97163.06;4431537;32;20128;-81
2022/04/25 09:17:54;;;;;;;3.33;0.90;;;;;;;26.15;29.35;97164.09;4446311;32;20089;-81
2022/04/25 09:20:21;;;;;;;1.40;0.90;;;;;;;24.88;33.88;97165.00;4439848;32;20081;-80
2022/04/25 09:22:48;;;;;;;1.87;0.80;;;;;;;23.86;32.70;97161.59;4449341;32;20120;-80
2022/04/25 09:25:17;;;;;;;1.75;0.90;;;;;;;24.24;34.65;97163.41;4453091;32;20576;-81
2022/04/25 09:28:11;;;;;;;2.25;0.90;;;;;;;25.33;31.95;97175.53;4452743;32;20138;-81
2022/04/25 09:30:39;;;;;;;2.62;0.90;;;;;;;25.99;30.51;97177.53;4454381;32;20424;-80
2022/04/25 09:33:22;;;;;;;0.98;0.62;;;;;;;25.62;30.72;97169.44;4455028;32;20919;-80
2022/04/25 09:35:57;;;;;;;2.20;0.90;;;;;;;25.53;30.29;97182.94;4441143;32;20115;-81
2022/04/25 09:38:33;;;;;;;4.12;0.90;;;;;;;25.94;30.53;97175.41;4454612;32;20081;-80
2022/04/25 09:41:00;;;;;;;2.22;0.90;;;;;;;26.20;29.55;97182.88;4454768;32;20525;-81
2022/04/25 09:43:30;;;;;;;1.15;0.70;;;;;;;23.67;33.48;97182.03;4454898;32;20105;-80
2022/04/25 09:46:03;;;;;;;0.95;0.55;;;;;;;23.80;32.99;97185.97;4454893;32;20101;-81
2022/04/25 09:48:30;;;;;;;1.48;0.90;;;;;;;25.01;30.90;97189.84;4454527;32;20372;-81
2022/04/25 09:50:59;;;;;;;2.55;0.82;;;;;;;24.43;31.04;97188.53;4454294;32;20552;-80
2022/04/25 09:53:54;;;;;;;3.67;1.00;;;;;;;24.50;31.57;97191.31;4441109;32;20511;-80
2022/04/25 09:56:23;;;;;;;2.58;1.10;;;;;;;25.09;31.15;97200.34;4442063;32;20165;-81
2022/04/25 09:59:07;;;;;;;2.78;1.12;;;;;;;24.47;34.44;97199.56;4439648;32;20111;-81
2022/04/25 10:01:39;;;;;;;3.85;1.12;;;;;;;22.66;39.10;97196.50;4455672;32;20129;-81
2022/04/25 10:04:31;;;;;;;3.08;1.10;;;;;;;21.19;41.44;97187.87;4442625;32;20108;-80
2022/04/25 10:07:04;;;;;;;2.97;0.98;;;;;;;20.37;44.26;97196.75;4456285;32;20345;-81
2022/04/25 10:09:34;;;;;;;1.80;1.08;;;;;;;20.29;44.74;97195.81;4455715;32;20085;-81
2022/04/25 10:12:04;;;;;;;1.62;0.93;;;;;;;19.90;45.49;97202.09;4456701;32;20542;-80
2022/04/25 10:14:32;;;;;;;4.55;1.23;;;;;;;19.88;45.70;97211.03;4456219;32;20121;-80
2022/04/25 10:16:59;;;;;;;2.97;1.10;;;;;;;20.36;45.99;97208.19;4440779;32;20117;-80
2022/04/25 10:19:28;;;;;;;2.78;1.10;;;;;;;20.53;43.41;97217.09;4455866;32;20154;-80
2022/04/25 10:21:56;;;;;;;4.30;1.20;;;;;;;19.83;46.29;97208.03;4456461;32;20085;-80
2022/04/25 10:24:24;;;;;;;3.67;1.42;;;;;;;20.47;44.86;97209.81;4456242;32;20123;-80
2022/04/25 10:26:57;;;;;;;2.37;1.15;;;;;;;21.50;42.09;97226.84;4456529;32;20129;-80
2022/04/25 10:29:29;;;;;;;1.37;0.93;;;;;;;20.96;42.11;97228.66;4455852;32;20153;-80
2022/04/25 10:32:09;;;;;;;3.12;1.05;;;;;;;20.41;43.70;97226.91;4454974;32;20151;-80
2022/04/25 10:34:48;;;;;;;1.67;0.70;;;;;;;20.79;43.86;97225.06;4454983;32;20101;-81
2022/04/25 10:37:34;;;;;;;3.67;1.05;;;;;;;21.35;42.60;97230.00;4456434;32;20101;-80
2022/04/25 10:40:06;;;;;;;2.35;1.00;;;;;;;20.71;43.04;97223.16;4455809;32;20164;-80
2022/04/25 10:46:00;;;;;;;1.92;0.95;;;;;;;19.43;45.62;97230.00;4456182;32;20153;-80
2022/04/25 10:48:29;;;;;;;2.90;1.20;;;;;;;19.79;44.86;97241.53;4455872;32;20112;-80
2022/04/25 10:51:18;;;;;;;1.75;0.88;;;;;;;19.90;44.87;97237.94;4454868;32;20148;-80
2022/04/25 10:54:02;;;;;;;2.80;1.02;;;;;;;19.06;46.77;97246.44;4456435;32;20152;-79
2022/04/25 10:56:30;;;;;;;3.15;1.10;;;;;;;19.67;46.45;97252.28;4454691;32;20161;-79
2022/04/25 10:59:25;;;;;;;2.03;0.90;;;;;;;19.22;47.09;97253.69;4454695;32;20160;-79
2022/04/25 11:01:54;;;;;;;3.20;1.20;;;;;;;20.24;44.12;97251.28;4456248;32;20113;-79
2022/04/25 11:04:21;;;;;;;3.53;1.20;;;;;;;20.83;42.96;97250.00;4454951;32;20112;-79
2022/04/25 11:07:22;;;;;;;3.25;1.20;;;;;;;19.24;45.57;97254.38;4456162;32;20096;-79
2022/04/25 11:09:50;;;;;;;5.45;1.27;;;;;;;20.47;43.94;97257.81;4455272;32;20109;-79
2022/04/25 11:12:17;;;;;;;3.45;1.33;;;;;;;19.94;45.12;97247.13;4455568;32;20160;-80
2022/04/25 11:15:03;;;;;;;1.83;0.93;;;;;;;19.28;45.73;97258.41;4455913;32;20487;-79
2022/04/25 11:17:30;;;;;;;3.03;1.20;;;;;;;19.65;45.16;97261.12;4456005;32;20109;-79
2022/04/25 11:19:57;;;;;;;2.60;1.00;;;;;;;20.10;44.02;97262.25;4455607;32;20109;-79
2022/04/25 11:22:37;;;;;;;2.60;1.10;;;;;;;20.66;43.27;97267.38;4455768;32;20115;-79
2022/04/25 11:25:23;;;;;;;2.05;0.90;;;;;;;21.07;42.38;97265.97;4455934;32;20455;-79
2022/04/25 11:28:07;;;;;;;2.60;0.88;;;;;;;20.04;43.33;97268.03;4456192;32;20089;-79
2022/04/25 11:30:34;;;;;;;2.62;0.95;;;;;;;20.62;43.23;97278.28;4455144;32;20134;-79
2022/04/25 11:33:06;;;;;;;0.90;0.80;;;;;;;20.76;42.06;97269.94;4455747;32;20479;-77
2022/04/25 11:35:33;;;;;;;2.83;1.00;;;;;;;21.46;40.68;97272.72;4456087;32;20444;-78
2022/04/25 11:38:01;;;;;;;1.67;0.80;;;;;;;20.37;42.56;97270.09;4455706;32;20148;-78
2022/04/25 11:40:28;;;;;;;4.05;1.10;;;;;;;20.35;42.54;97272.03;4455288;32;20168;-78
2022/04/25 11:42:56;;;;;;;1.90;0.90;;;;;;;20.98;42.14;97272.13;4456099;32;20108;-81
2022/04/25 11:45:23;;;;;;;2.65;0.90;;;;;;;22.82;40.34;97272.78;4455235;32;20438;-81
2022/04/25 11:47:50;;;;;;;1.50;0.68;;;;;;;23.01;35.97;97264.63;4455836;32;20168;-81
2022/04/25 11:50:23;;;;;;;1.67;0.80;;;;;;;23.81;34.56;97270.06;4428423;32;20397;-81
2022/04/25 11:52:57;;;;;;;1.60;0.82;;;;;;;23.28;37.29;97275.84;4455767;32;20093;-79
2022/04/25 11:55:35;;;;;;;0.75;0.70;;;;;;;23.41;35.59;97270.94;4442234;32;20099;-79
2022/04/25 11:58:03;;;;;;;9.40;7.53;;;;;;;23.38;35.36;97272.06;4456179;32;20100;-80
2022/04/25 12:00:30;;;;;;;0.77;0.73;;;;;;;23.58;34.61;97277.00;4455168;32;20112;-80
2022/04/25 12:03:03;;;;;;;0.70;0.62;;;;;;;24.17;34.79;97283.69;4456000;32;20081;-80
2022/04/25 12:05:32;;;;;;;2.10;0.75;;;;;;;23.91;36.40;97278.63;4455300;32;20077;-79
2022/04/25 12:16:18;;;;;;;1.07;0.70;;;;;;;23.71;33.18;97285.22;4455588;32;20502;-77
2022/04/25 12:18:52;;;;;;;2.12;0.70;;;;;;;24.62;31.25;97287.50;4455050;32;20085;-78
2022/04/25 12:21:20;;;;;;;1.37;0.70;;;;;;;24.94;31.01;97288.31;4441930;32;20251;-79
2022/04/25 12:23:53;;;;;;;1.30;0.77;;;;;;;24.23;32.52;97293.53;4455559;32;20080;-78
2022/04/25 12:26:25;;;;;;;1.17;0.70;;;;;;;23.14;33.95;97279.13;4441284;32;20077;-78
2022/04/25 12:29:01;;;;;;;0.90;0.77;;;;;;;24.56;31.54;97287.34;4455012;32;20154;-79
2022/04/25 12:31:29;;;;;;;0.95;0.60;;;;;;;24.96;31.38;97287.13;4455825;32;20121;-78
2022/04/25 12:34:05;;;;;;;2.70;0.93;;;;;;;25.21;32.18;97293.13;4441301;32;20574;-78
2022/04/25 12:36:32;;;;;;;1.35;0.70;;;;;;;24.31;32.45;97294.53;4455486;32;20132;-78
2022/04/25 12:39:08;;;;;;;1.45;0.70;;;;;;;24.66;31.80;97291.41;4455188;32;20094;-78
2022/04/25 12:41:37;;;;;;;3.08;1.00;;;;;;;25.08;30.50;97288.41;4455170;32;20527;-78
2022/04/25 12:44:10;;;;;;;1.80;0.70;;;;;;;25.41;31.04;97295.28;4455278;32;20124;-77
2022/04/25 12:46:45;;;;;;;0.93;0.70;;;;;;;24.36;32.16;97286.97;4455261;32;20077;-80
2022/04/25 12:49:17;;;;;;;2.45;0.73;;;;;;;25.13;31.65;97300.28;4440537;32;20104;-80
2022/04/25 12:51:51;;;;;;;2.87;0.60;;;;;;;25.88;29.88;97295.91;4455222;32;20399;-80
2022/04/25 12:54:26;;;;;;;3.40;0.70;;;;;;;25.08;31.47;97296.31;4455359;32;20443;-79